This is the latest recevied weather packets stored in our database for station/object W1MWS-13. If no packets are shown the sender has not sent any weather packets the latest 10 day(s).
| Time | Temp. | Humidity | Pressure | Rain* | Wind** | Luminosity | Snow |
|---|---|---|---|---|---|---|---|
| 1777263495 | 5.56° C | 86% | 1022.8 hPa | 0 mm | - | - | - |
| 1777263204 | 5.56° C | 86% | 1022.8 hPa | 0 mm | - | - | - |
| 1777260198 | 6.67° C | 79% | 1022.5 hPa | 0 mm | - | - | - |
| 1777256011 | 8.33° C | 72% | 1022.2 hPa | 0 mm | - | - | - |
| 1777255412 | 8.89° C | 68% | 1022.2 hPa | 0 mm | - | - | - |
| 1777254825 | 8.89° C | 67% | 1022.2 hPa | 0 mm | - | - | - |
| 1777254502 | 9.44° C | 67% | 1022.2 hPa | 0 mm | - | - | - |
| 1777254199 | 9.44° C | 67% | 1022.1 hPa | 0 mm | - | - | - |
| 1777253896 | 9.44° C | 67% | 1022.1 hPa | 0 mm | - | - | - |
| 1777251507 | 10.56° C | 60% | 1021.9 hPa | 0 mm | - | - | - |
| 1777246411 | 14.44° C | 51% | - | 0 mm | - | - | - |
| 1777243409 | 16.11° C | 48% | 1020.3 hPa | 0 mm | - | - | - |
| 1777237707 | 18.89° C | 44% | 1019.7 hPa | 0 mm | - | - | - |
| 1777236502 | 18.33° C | 45% | 1019.6 hPa | 0 mm | - | - | - |
| 1777230805 | 20° C | 42% | 1019.7 hPa | 0 mm | - | - | - |
| 1777229897 | 19.44° C | 42% | 1019.7 hPa | 0 mm | - | - | - |
| 1777227804 | 17.22° C | 44% | 1019.9 hPa | 0 mm | - | - | - |
| 1777227218 | 18.33° C | 42% | 1020.1 hPa | 0 mm | - | - | - |
| 1777226927 | 18.89° C | 43% | 1020.1 hPa | 0 mm | - | - | - |
| 1777225399 | 17.22° C | 43% | 1020.2 hPa | 0 mm | - | - | - |
| 1777223907 | 17.22° C | 46% | 1020.2 hPa | 0 mm | - | - | - |
| 1777222707 | 17.22° C | 46% | 1020.2 hPa | 0 mm | - | - | - |
| 1777219998 | 16.67° C | 49% | 1020.3 hPa | 0 mm | - | - | - |
| 1777219121 | 16.67° C | 47% | 1020.4 hPa | 0 mm | - | - | - |
| 1777218198 | 15.56° C | 49% | 1020.5 hPa | 0 mm | - | - | - |
* Rain latest hour (hover to see other rain measurements)
** Current wind speed in m/s (hover to see current wind gust speed)